메인 페이지
METAR-TAF:

METAR-TAF

공항 :

폰페이 국제공항

폰페이 섬, 미크로네시아

위도: 06-59N, 경도: 158-12E, 고도: 2m

현재 날씨관측

예보는 11 시간 48분 전, 03:50시(UTC)에 발표되었습니다.
무풍
온도 26°C
습도 94%
기압 1007 hPa
시정: 20.9km
고도 1700ft 상공 구름 많음, 타워링 적운.
고도 13000ft 상공 흐림
약한비

METAR: PTPN 240350Z 00000KT 13SM -RA BKN017TCU OVC130 26/25 A2975 RMK TCU ALQDS LAST

시각: 02:38 (15:38 UTC)

예보

예보는 12 시간 3분 전, 03:35시(UTC)에 발표되었습니다.
예보 대상 시간: 24일 04시부터 24일 24시까지 (UTC)
8kt
시정: 10km
고도 1400ft 상공 구름 보통, 적란운.
고도 4000ft 상공 구름 많음
고도 10000ft 상공 흐림
약한비, 시계 내 뇌우
일시적
24일 04시부터 24일 08시까지 (UTC)
시정: 4.8km
고도 1400ft 상공 구름 많음
고도 3000ft 상공 흐림
소나기
24일 0800시부터 (UTC)
동남동8kt
시정: 10km
고도 1600ft 상공 구름 보통
고도 4000ft 상공 구름 보통
고도 12000ft 상공 구름 많음
시계 내 소나기

TAF: PTPN 240335Z 2404/2424 10008KT P6SM -RA VCTS SCT014CB BKN040 OVC100 TEMPO 2404/2408 3SM SHRA BKN014 OVC030 FM240800 11008KT P6SM VCSH SCT016 SCT040 BKN120

4,000개 이상의 공항 관측 자료 및 예보 (METAR 및 TAF 보고).

지도상에서 검색 가능한 기상관측소가 노란 점과 빨간 점으로 표시되어 있습니다.

기상관측소 명을 보려면 표시 위로 마우스를 이동하세요.

날씨 관측과 예보를 보려면 클릭하세요.

지도 변경 : 확대하려면 엑스 표시가 있는 녹색 버튼, 축소하려면 빼기 표시가 있는 녹색 버튼, 다음 페이지의 지도를 보려면 녹색 화살표를 클릭하세요.


METAR-TAF: